createdAt,value
2018-09-23T00:00:42.977Z,18.30
2018-09-23T00:03:11.494Z,18.40
2018-09-23T00:05:39.785Z,18.40
2018-09-23T00:08:08.106Z,18.40
2018-09-23T00:10:36.306Z,18.40
2018-09-23T00:13:04.595Z,18.40
2018-09-23T00:15:33.022Z,18.40
2018-09-23T00:18:01.342Z,18.50
2018-09-23T00:20:29.595Z,18.50
2018-09-23T00:22:57.802Z,18.40
2018-09-23T00:25:26.840Z,18.40
2018-09-23T00:27:55.058Z,18.30
2018-09-23T00:30:23.272Z,18.30
2018-09-23T00:32:51.531Z,18.20
2018-09-23T00:35:19.734Z,18.30
2018-09-23T00:37:49.202Z,18.30
2018-09-23T00:40:17.751Z,18.10
2018-09-23T00:42:45.962Z,18.20
2018-09-23T00:45:14.194Z,18.10
2018-09-23T00:47:42.719Z,18.20
2018-09-23T00:50:11.968Z,18.20
2018-09-23T00:52:40.306Z,18.10
2018-09-23T00:55:08.581Z,18.20
2018-09-23T00:57:36.854Z,18.20
2018-09-23T01:00:05.794Z,18.00
2018-09-23T01:02:34.173Z,18.00
2018-09-23T01:05:02.486Z,17.90
2018-09-23T01:07:30.662Z,17.90
2018-09-23T01:09:58.912Z,17.80
2018-09-23T01:12:27.236Z,17.80
2018-09-23T01:14:55.622Z,17.90
2018-09-23T01:17:23.821Z,17.90
2018-09-23T01:19:52.098Z,17.70
2018-09-23T01:22:20.295Z,17.60
2018-09-23T01:24:48.697Z,17.70
2018-09-23T01:27:16.898Z,17.60
2018-09-23T01:29:45.139Z,17.40
2018-09-23T01:32:13.415Z,17.50
2018-09-23T01:34:41.817Z,17.50
2018-09-23T01:37:10.273Z,17.50
2018-09-23T01:39:38.643Z,17.60
2018-09-23T01:42:07.405Z,17.50
2018-09-23T01:44:35.642Z,17.40
2018-09-23T01:47:03.970Z,17.50
2018-09-23T01:49:32.273Z,17.40
2018-09-23T01:52:00.832Z,17.20
2018-09-23T01:54:29.213Z,17.00
2018-09-23T01:56:57.672Z,16.80
2018-09-23T01:59:25.910Z,16.80
2018-09-23T02:01:54.205Z,16.80
2018-09-23T02:04:22.439Z,16.70
2018-09-23T02:06:50.673Z,16.70
2018-09-23T02:09:18.954Z,16.70
2018-09-23T02:11:47.444Z,16.60
2018-09-23T02:14:15.711Z,16.70
2018-09-23T02:16:43.896Z,16.70
2018-09-23T02:19:12.510Z,16.60
2018-09-23T02:21:40.699Z,16.30
2018-09-23T02:24:08.902Z,16.20
2018-09-23T02:26:37.125Z,16.20
2018-09-23T02:29:05.634Z,16.30
2018-09-23T02:31:33.881Z,16.30
2018-09-23T02:34:02.083Z,16.40
2018-09-23T02:36:30.330Z,16.40
2018-09-23T02:38:58.727Z,16.30
2018-09-23T02:41:27.097Z,16.20
2018-09-23T02:43:55.606Z,16.40
2018-09-23T02:46:23.781Z,16.40
2018-09-23T02:48:52.025Z,16.50
2018-09-23T02:51:20.554Z,16.60
2018-09-23T02:53:48.789Z,16.60
2018-09-23T02:56:17.016Z,16.50
2018-09-23T02:58:45.290Z,16.50
2018-09-23T03:01:13.551Z,16.50
2018-09-23T03:03:42.325Z,16.60
2018-09-23T03:06:10.607Z,16.60
2018-09-23T03:08:38.830Z,16.40
2018-09-23T03:11:07.849Z,16.20
2018-09-23T03:13:36.160Z,16.20
2018-09-23T03:16:04.510Z,16.20
2018-09-23T03:18:32.710Z,16.00
2018-09-23T03:21:00.985Z,16.00
2018-09-23T03:23:29.236Z,15.60
2018-09-23T03:25:57.673Z,15.60
2018-09-23T03:28:25.861Z,15.60
2018-09-23T03:30:54.126Z,15.70
2018-09-23T03:33:22.474Z,15.60
2018-09-23T03:35:50.904Z,15.50
2018-09-23T03:38:19.295Z,15.50
2018-09-23T03:40:47.502Z,15.50
2018-09-23T03:43:15.790Z,15.40
2018-09-23T03:45:44.090Z,15.40
2018-09-23T03:48:12.566Z,15.60
2018-09-23T03:50:40.786Z,15.60
2018-09-23T03:53:08.985Z,15.60
2018-09-23T03:55:37.259Z,15.60
2018-09-23T03:58:05.872Z,15.50
2018-09-23T04:00:34.538Z,15.50
2018-09-23T04:03:02.768Z,15.50
2018-09-23T04:05:30.982Z,15.40
2018-09-23T04:07:59.254Z,15.30
2018-09-23T04:10:27.810Z,15.30
2018-09-23T04:12:56.055Z,15.30
2018-09-23T04:15:24.287Z,15.40
2018-09-23T04:17:52.545Z,15.30
2018-09-23T04:20:21.002Z,15.20
2018-09-23T04:22:51.293Z,15.10
2018-09-23T04:25:20.866Z,14.90
2018-09-23T04:27:49.708Z,14.80
2018-09-23T04:30:19.463Z,14.60
2018-09-23T04:32:47.991Z,14.40
2018-09-23T04:35:16.790Z,14.40
2018-09-23T04:37:45.238Z,14.60
2018-09-23T04:40:14.016Z,14.50
2018-09-23T04:42:42.221Z,14.50
2018-09-23T04:45:10.422Z,14.70
2018-09-23T04:47:38.670Z,14.80
2018-09-23T04:50:06.902Z,14.90
2018-09-23T04:52:36.084Z,15.00
2018-09-23T04:55:04.685Z,15.20
2018-09-23T04:57:32.975Z,15.10
2018-09-23T05:00:01.169Z,15.20
2018-09-23T05:02:29.338Z,15.20
2018-09-23T05:04:57.624Z,15.30
2018-09-23T05:07:25.877Z,15.20
2018-09-23T05:09:54.089Z,15.20
2018-09-23T05:12:22.386Z,15.30
2018-09-23T05:14:50.609Z,15.20
2018-09-23T05:17:19.589Z,15.30
2018-09-23T05:19:47.869Z,15.10
2018-09-23T05:22:16.086Z,15.20
2018-09-23T05:24:44.313Z,15.10
2018-09-23T05:27:12.650Z,15.10
2018-09-23T05:29:40.907Z,15.20
2018-09-23T05:32:09.132Z,15.20
2018-09-23T05:34:37.341Z,15.20
2018-09-23T05:37:06.116Z,15.10
2018-09-23T05:39:34.591Z,15.10
2018-09-23T05:42:02.783Z,15.20
2018-09-23T05:44:31.027Z,15.10
2018-09-23T05:46:59.205Z,14.70
2018-09-23T05:49:27.522Z,14.50
2018-09-23T05:51:55.748Z,14.60
2018-09-23T05:54:23.964Z,14.60
2018-09-23T05:56:52.167Z,14.60
2018-09-23T05:59:20.636Z,14.70
2018-09-23T06:01:48.902Z,14.60
2018-09-23T06:04:17.099Z,14.80
2018-09-23T06:06:45.305Z,14.90
2018-09-23T06:09:13.979Z,14.90
2018-09-23T06:11:42.276Z,14.60
2018-09-23T06:14:10.506Z,14.60
2018-09-23T06:16:38.677Z,14.60
2018-09-23T06:19:06.878Z,14.60
2018-09-23T06:21:35.180Z,14.80
2018-09-23T06:24:03.387Z,15.00
2018-09-23T06:26:31.595Z,14.80
2018-09-23T06:28:59.769Z,14.80
2018-09-23T06:31:28.210Z,14.90
2018-09-23T06:33:56.473Z,15.00
2018-09-23T06:36:24.708Z,15.10
2018-09-23T06:38:52.949Z,15.00
2018-09-23T06:41:21.267Z,15.10
2018-09-23T06:43:49.739Z,15.10
2018-09-23T06:46:18.075Z,15.00
2018-09-23T06:48:46.275Z,15.10
2018-09-23T06:51:14.765Z,15.20
2018-09-23T06:53:43.401Z,15.30
2018-09-23T06:56:12.236Z,15.40
2018-09-23T06:58:40.482Z,15.50
2018-09-23T07:01:08.702Z,15.60
2018-09-23T07:03:36.922Z,15.50
2018-09-23T07:06:05.328Z,15.50
2018-09-23T07:08:34.714Z,15.40
2018-09-23T07:11:02.991Z,15.60
2018-09-23T07:13:31.201Z,15.70
2018-09-23T07:15:59.442Z,15.70
2018-09-23T07:18:28.187Z,15.70
2018-09-23T07:20:56.754Z,15.70
2018-09-23T07:23:24.921Z,15.70
2018-09-23T07:25:53.183Z,15.70
2018-09-23T07:28:22.340Z,15.90
2018-09-23T07:30:50.794Z,15.90
2018-09-23T07:33:19.090Z,15.90
2018-09-23T07:35:47.320Z,16.10
2018-09-23T07:38:15.601Z,16.20
2018-09-23T07:40:44.331Z,16.20
2018-09-23T07:43:12.757Z,16.20
2018-09-23T07:45:40.974Z,16.20
2018-09-23T07:48:09.259Z,16.40
2018-09-23T07:50:37.441Z,16.40
2018-09-23T07:53:06.133Z,16.50
2018-09-23T07:55:34.405Z,16.40
2018-09-23T07:58:02.612Z,16.40
2018-09-23T08:00:30.791Z,16.50
2018-09-23T08:02:59.033Z,16.50
2018-09-23T08:05:28.068Z,16.50
2018-09-23T08:07:57.525Z,16.60
2018-09-23T08:10:25.694Z,16.70
2018-09-23T08:12:54.098Z,16.90
2018-09-23T08:15:22.256Z,17.10
2018-09-23T08:17:50.555Z,17.20
2018-09-23T08:20:18.915Z,17.30
2018-09-23T08:22:47.509Z,17.40
2018-09-23T08:25:15.763Z,17.50
2018-09-23T08:27:45.638Z,17.70
2018-09-23T08:30:13.965Z,17.80
2018-09-23T08:32:42.663Z,17.90
2018-09-23T08:35:10.873Z,18.00
2018-09-23T08:37:39.255Z,18.00
2018-09-23T08:40:07.526Z,18.00
2018-09-23T08:42:35.777Z,17.80
2018-09-23T08:45:04.114Z,18.00
2018-09-23T08:47:32.471Z,18.10
2018-09-23T08:50:00.830Z,18.10
2018-09-23T08:52:29.287Z,18.20
2018-09-23T08:54:57.541Z,18.30
2018-09-23T08:57:25.802Z,18.40
2018-09-23T08:59:53.975Z,18.50
2018-09-23T09:02:22.236Z,18.50
2018-09-23T09:04:50.634Z,18.70
2018-09-23T09:07:19.198Z,18.90
2018-09-23T09:09:47.554Z,18.90
2018-09-23T09:12:15.831Z,19.00
2018-09-23T09:14:44.340Z,19.10
2018-09-23T09:17:12.573Z,19.40
2018-09-23T09:19:40.835Z,19.80
2018-09-23T09:22:09.136Z,20.00
2018-09-23T09:24:37.425Z,20.20
2018-09-23T09:27:06.230Z,20.20
2018-09-23T09:29:35.024Z,20.20
2018-09-23T09:32:05.277Z,20.50
2018-09-23T09:34:33.561Z,20.80
2018-09-23T09:37:02.043Z,21.40
2018-09-23T09:39:30.420Z,21.60
2018-09-23T09:41:59.044Z,21.50
2018-09-23T09:44:28.165Z,21.60
2018-09-23T09:46:56.663Z,22.00
2018-09-23T09:49:24.879Z,21.80
2018-09-23T09:51:53.145Z,21.10
2018-09-23T09:54:22.465Z,20.90
2018-09-23T09:56:51.354Z,20.90
2018-09-23T09:59:20.821Z,20.80
2018-09-23T10:01:49.129Z,20.70
2018-09-23T10:04:17.429Z,20.70
2018-09-23T10:06:45.956Z,20.70
2018-09-23T10:09:14.381Z,20.60
2018-09-23T10:11:42.663Z,20.70
2018-09-23T10:14:10.960Z,21.10
2018-09-23T10:16:39.286Z,21.20
2018-09-23T10:19:07.812Z,21.20
2018-09-23T10:21:36.387Z,21.20
2018-09-23T10:24:04.845Z,21.40
2018-09-23T10:26:33.051Z,21.50
2018-09-23T10:29:01.323Z,22.00
2018-09-23T10:31:29.750Z,23.00
2018-09-23T10:33:58.518Z,24.30
2018-09-23T10:36:27.148Z,24.20
2018-09-23T10:38:55.451Z,23.60
2018-09-23T10:41:24.119Z,23.50
2018-09-23T10:43:52.378Z,23.00
2018-09-23T10:46:20.811Z,22.70
2018-09-23T10:48:49.227Z,22.50
2018-09-23T10:51:17.386Z,22.00
2018-09-23T10:53:45.618Z,22.30
2018-09-23T10:56:14.122Z,22.80
2018-09-23T10:58:42.702Z,22.80
2018-09-23T11:01:10.899Z,22.80
2018-09-23T11:03:39.149Z,22.90
2018-09-23T11:06:07.407Z,23.40
2018-09-23T11:08:35.957Z,23.20
2018-09-23T11:11:04.169Z,23.70
2018-09-23T11:13:32.449Z,24.60
2018-09-23T11:16:00.658Z,25.10
2018-09-23T11:18:29.943Z,25.00
2018-09-23T11:20:58.501Z,24.70
2018-09-23T11:23:26.769Z,24.60
2018-09-23T11:25:54.995Z,24.10
2018-09-23T11:28:23.200Z,23.30
2018-09-23T11:30:51.914Z,22.70
2018-09-23T11:33:20.385Z,22.30
2018-09-23T11:35:48.859Z,22.20
2018-09-23T11:38:17.146Z,21.80
2018-09-23T11:40:45.377Z,21.70
2018-09-23T11:43:13.696Z,21.60
2018-09-23T11:45:42.636Z,21.50
2018-09-23T11:48:10.996Z,21.60
2018-09-23T11:50:39.213Z,21.50
2018-09-23T11:53:07.479Z,21.40
2018-09-23T11:55:36.052Z,21.20
2018-09-23T11:58:04.758Z,21.20
2018-09-23T12:00:32.987Z,21.30
2018-09-23T12:03:01.195Z,21.50
2018-09-23T12:05:29.987Z,21.40
2018-09-23T12:07:58.450Z,21.50
2018-09-23T12:10:26.745Z,21.70
2018-09-23T12:12:54.957Z,21.70
2018-09-23T12:15:23.137Z,21.80
2018-09-23T12:17:51.537Z,21.90
2018-09-23T12:20:19.775Z,22.20
2018-09-23T12:22:48.163Z,22.30
2018-09-23T12:25:16.406Z,22.10
2018-09-23T12:27:44.717Z,22.00
2018-09-23T12:30:12.914Z,22.10
2018-09-23T12:32:41.243Z,22.10
2018-09-23T12:35:09.542Z,22.30
2018-09-23T12:37:40.150Z,22.20
2018-09-23T12:40:10.454Z,22.10
2018-09-23T12:42:39.578Z,22.20
2018-09-23T12:45:08.297Z,22.50
2018-09-23T12:47:36.666Z,22.80
2018-09-23T12:50:05.855Z,23.00
2018-09-23T12:52:34.205Z,22.90
2018-09-23T12:55:02.387Z,22.90
2018-09-23T12:57:31.401Z,22.80
2018-09-23T12:59:59.675Z,22.80
2018-09-23T13:02:28.096Z,22.70
2018-09-23T13:05:00.783Z,22.70
2018-09-23T13:07:29.489Z,23.10
2018-09-23T13:09:57.803Z,24.10
2018-09-23T13:12:26.033Z,24.20
2018-09-23T13:14:54.221Z,24.10
2018-09-23T13:17:22.482Z,23.90
2018-09-23T13:19:50.937Z,23.60
2018-09-23T13:22:19.195Z,23.40
2018-09-23T13:24:47.378Z,23.40
2018-09-23T13:27:15.609Z,23.50
2018-09-23T13:29:43.926Z,23.50
2018-09-23T13:32:12.190Z,23.50
2018-09-23T13:34:40.422Z,23.60
2018-09-23T13:37:08.681Z,23.80
2018-09-23T13:39:37.170Z,24.10
2018-09-23T13:42:05.401Z,24.10
2018-09-23T13:44:33.609Z,23.60
2018-09-23T13:47:01.898Z,23.50
2018-09-23T13:49:30.180Z,23.50
2018-09-23T13:51:58.600Z,23.40
2018-09-23T13:54:26.854Z,23.40
2018-09-23T13:56:55.142Z,23.40
2018-09-23T13:59:23.327Z,23.40
2018-09-23T14:01:51.857Z,23.60
2018-09-23T14:04:20.679Z,23.90
2018-09-23T14:06:48.944Z,24.00
2018-09-23T14:09:17.221Z,24.20
2018-09-23T14:11:45.445Z,24.30
2018-09-23T14:14:13.807Z,24.70
2018-09-23T14:16:42.216Z,24.90
2018-09-23T14:19:10.430Z,25.30
2018-09-23T14:21:38.713Z,25.60
2018-09-23T14:24:06.995Z,25.70
2018-09-23T14:26:35.228Z,25.40
2018-09-23T14:29:03.651Z,25.30
2018-09-23T14:31:31.862Z,25.10
2018-09-23T14:34:00.088Z,25.00
2018-09-23T14:36:28.392Z,24.80
2018-09-23T14:38:56.638Z,24.70
2018-09-23T14:41:24.821Z,24.90
2018-09-23T14:43:53.075Z,25.30
2018-09-23T14:46:21.766Z,25.70
2018-09-23T14:48:49.981Z,25.70
2018-09-23T14:51:18.150Z,25.70
2018-09-23T14:53:46.322Z,25.40
2018-09-23T14:56:14.623Z,25.10
2018-09-23T14:58:42.806Z,25.10
2018-09-23T15:01:11.030Z,25.00
2018-09-23T15:03:39.335Z,24.90
2018-09-23T15:06:07.556Z,24.80
2018-09-23T15:08:36.410Z,24.70
2018-09-23T15:11:05.470Z,24.70
2018-09-23T15:13:33.667Z,24.40
2018-09-23T15:16:01.894Z,24.40
2018-09-23T15:18:30.173Z,24.50
2018-09-23T15:20:58.775Z,24.50
2018-09-23T15:23:27.051Z,24.50
2018-09-23T15:25:55.298Z,24.80
2018-09-23T15:28:23.575Z,24.80
2018-09-23T15:30:51.969Z,24.80
2018-09-23T15:33:21.222Z,24.50
2018-09-23T15:35:50.356Z,24.40
2018-09-23T15:38:18.565Z,24.20
2018-09-23T15:40:46.769Z,24.10
2018-09-23T15:43:14.989Z,24.00
2018-09-23T15:45:43.447Z,24.10
2018-09-23T15:48:12.176Z,24.30
2018-09-23T15:50:40.602Z,24.10
2018-09-23T15:53:09.389Z,24.20
2018-09-23T15:55:37.806Z,24.20
2018-09-23T15:58:06.401Z,24.10
2018-09-23T16:00:35.215Z,23.50
2018-09-23T16:03:03.522Z,22.70
2018-09-23T16:05:31.827Z,22.20
2018-09-23T16:08:00.468Z,21.80
2018-09-23T16:10:28.678Z,21.30
2018-09-23T16:12:57.136Z,20.80
2018-09-23T16:15:25.329Z,20.60
2018-09-23T16:17:53.723Z,20.40
2018-09-23T16:20:22.502Z,20.20
2018-09-23T16:22:50.927Z,20.10
2018-09-23T16:25:19.288Z,19.90
2018-09-23T16:27:47.732Z,19.80
2018-09-23T16:30:15.963Z,19.70
2018-09-23T16:32:44.318Z,19.10
2018-09-23T16:35:13.205Z,18.20
2018-09-23T16:37:41.561Z,17.30
2018-09-23T16:40:09.800Z,16.80
2018-09-23T16:42:38.057Z,16.20
2018-09-23T16:45:06.361Z,15.90
2018-09-23T16:47:35.393Z,15.80
2018-09-23T16:50:03.781Z,15.70
2018-09-23T16:52:32.019Z,15.60
2018-09-23T16:55:00.282Z,15.60
2018-09-23T16:57:28.614Z,15.50
2018-09-23T16:59:56.917Z,15.50
2018-09-23T17:02:25.475Z,15.50
2018-09-23T17:04:53.785Z,15.50
2018-09-23T17:07:22.473Z,15.50
2018-09-23T17:09:51.536Z,15.50
2018-09-23T17:12:19.951Z,15.70
2018-09-23T17:14:48.394Z,15.70
2018-09-23T17:17:16.639Z,15.80
2018-09-23T17:19:44.911Z,15.70
2018-09-23T17:22:13.219Z,15.70
2018-09-23T17:24:41.419Z,15.90
2018-09-23T17:27:09.655Z,16.00
2018-09-23T17:29:38.009Z,15.90
2018-09-23T17:32:06.715Z,15.90
2018-09-23T17:34:35.241Z,16.00
2018-09-23T17:37:03.571Z,15.90
2018-09-23T17:39:31.773Z,16.00
2018-09-23T17:41:59.953Z,16.20
2018-09-23T17:44:28.625Z,16.10
2018-09-23T17:46:56.979Z,16.10
2018-09-23T17:49:25.570Z,16.20
2018-09-23T17:51:54.001Z,16.30
2018-09-23T17:54:22.963Z,16.20
2018-09-23T17:56:51.680Z,16.40
2018-09-23T17:59:19.944Z,16.40
2018-09-23T18:01:48.310Z,16.20
2018-09-23T18:04:16.526Z,16.20
2018-09-23T18:06:44.922Z,16.30
2018-09-23T18:09:13.300Z,16.10
2018-09-23T18:11:41.667Z,16.10
2018-09-23T18:14:10.337Z,15.90
2018-09-23T18:16:38.662Z,15.90
2018-09-23T18:19:07.503Z,15.90
2018-09-23T18:21:36.226Z,15.90
2018-09-23T18:24:04.470Z,15.80
2018-09-23T18:26:32.768Z,15.90
2018-09-23T18:29:01.016Z,16.00
2018-09-23T18:31:29.929Z,16.20
2018-09-23T18:33:58.544Z,16.10
2018-09-23T18:36:26.769Z,16.00
2018-09-23T18:38:55.268Z,16.00
2018-09-23T18:41:23.683Z,15.90
2018-09-23T18:43:54.037Z,15.90
2018-09-23T18:46:22.914Z,15.90
2018-09-23T18:48:51.437Z,16.20
2018-09-23T18:51:19.946Z,16.10
2018-09-23T18:53:53.776Z,16.10
2018-09-23T18:56:22.637Z,16.30
2018-09-23T18:58:51.220Z,16.40
2018-09-23T19:01:20.575Z,16.30
2018-09-23T19:03:48.834Z,16.30
2018-09-23T19:06:17.144Z,16.40
2018-09-23T19:08:45.451Z,16.10
2018-09-23T19:11:13.985Z,16.20
2018-09-23T19:13:48.630Z,16.20
2018-09-23T19:16:22.306Z,16.00
2018-09-23T19:18:51.329Z,15.90
2018-09-23T19:21:19.541Z,15.60
2018-09-23T19:23:47.813Z,15.30
2018-09-23T19:26:16.063Z,15.20
2018-09-23T19:28:44.873Z,15.10
2018-09-23T19:31:13.391Z,14.90
2018-09-23T19:33:41.738Z,14.90
2018-09-23T19:36:09.990Z,14.90
2018-09-23T19:38:38.380Z,14.80
2018-09-23T19:41:07.226Z,14.70
2018-09-23T19:43:36.450Z,14.40
2018-09-23T19:46:05.812Z,14.20
2018-09-23T19:48:35.549Z,14.30
2018-09-23T19:51:03.839Z,14.60
2018-09-23T19:53:32.459Z,14.60
2018-09-23T19:56:01.045Z,14.50
2018-09-23T19:58:29.398Z,14.40
2018-09-23T20:00:58.196Z,14.40
2018-09-23T20:03:26.509Z,14.10
2018-09-23T20:05:54.798Z,13.90
2018-09-23T20:08:23.076Z,13.80
2018-09-23T20:10:51.674Z,14.00
2018-09-23T20:13:20.282Z,13.90
2018-09-23T20:15:48.715Z,14.00
2018-09-23T20:18:17.731Z,13.90
2018-09-23T20:20:45.937Z,13.80
2018-09-23T20:23:14.950Z,13.80
2018-09-23T20:25:44.023Z,13.30
2018-09-23T20:28:12.645Z,12.80
2018-09-23T20:30:41.495Z,12.60
2018-09-23T20:33:09.848Z,12.60
2018-09-23T20:35:38.041Z,12.50
2018-09-23T20:38:07.631Z,12.20
2018-09-23T20:40:36.298Z,12.20
2018-09-23T20:43:05.837Z,12.30
2018-09-23T20:45:34.155Z,12.30
2018-09-23T20:48:03.049Z,12.20
2018-09-23T20:50:31.642Z,12.20
2018-09-23T20:53:00.193Z,12.00
2018-09-23T20:55:29.609Z,11.90
2018-09-23T20:57:58.894Z,11.90
2018-09-23T21:00:28.008Z,11.90
2018-09-23T21:02:56.663Z,11.90
2018-09-23T21:05:24.863Z,11.80
2018-09-23T21:07:53.122Z,11.90
2018-09-23T21:10:21.453Z,12.10
2018-09-23T21:12:49.811Z,12.20
2018-09-23T21:15:18.119Z,12.30
2018-09-23T21:17:46.329Z,12.10
2018-09-23T21:20:14.767Z,12.00
2018-09-23T21:22:43.164Z,12.10
2018-09-23T21:25:11.461Z,12.30
2018-09-23T21:27:39.654Z,12.40
2018-09-23T21:30:07.958Z,12.30
2018-09-23T21:32:37.878Z,12.10
2018-09-23T21:35:07.071Z,11.90
2018-09-23T21:37:35.929Z,11.80
2018-09-23T21:40:04.319Z,11.60
2018-09-23T21:42:33.169Z,11.60
2018-09-23T21:45:01.691Z,11.90
2018-09-23T21:47:30.804Z,12.00
2018-09-23T21:50:00.049Z,11.80
2018-09-23T21:52:28.489Z,11.80
2018-09-23T21:54:56.761Z,11.60
2018-09-23T21:57:25.002Z,11.90
2018-09-23T21:59:53.599Z,12.20
2018-09-23T22:02:21.866Z,12.40
2018-09-23T22:04:51.303Z,12.10
2018-09-23T22:07:19.667Z,11.80
2018-09-23T22:09:47.863Z,11.90
2018-09-23T22:12:16.053Z,11.90
2018-09-23T22:14:45.214Z,11.90
2018-09-23T22:17:13.532Z,11.90
2018-09-23T22:19:42.387Z,11.90
2018-09-23T22:22:10.634Z,11.90
2018-09-23T22:24:38.895Z,12.10
2018-09-23T22:27:07.319Z,12.10
2018-09-23T22:29:35.862Z,11.80
2018-09-23T22:32:04.123Z,11.80
2018-09-23T22:34:32.349Z,11.70
2018-09-23T22:37:00.603Z,11.50
2018-09-23T22:39:29.862Z,11.60
2018-09-23T22:41:59.771Z,11.40
2018-09-23T22:44:29.184Z,11.50
2018-09-23T22:46:58.696Z,11.50
2018-09-23T22:49:27.532Z,11.70
2018-09-23T22:51:55.847Z,11.70
2018-09-23T22:54:25.867Z,11.60
2018-09-23T22:56:54.512Z,11.50
2018-09-23T22:59:30.112Z,11.50
2018-09-23T23:01:59.057Z,11.70
2018-09-23T23:04:28.606Z,11.50
2018-09-23T23:06:56.874Z,11.40
2018-09-23T23:09:25.114Z,11.40
2018-09-23T23:11:53.332Z,11.50
2018-09-23T23:14:21.741Z,11.60
2018-09-23T23:16:50.628Z,11.70
2018-09-23T23:19:18.986Z,12.10
2018-09-23T23:21:47.187Z,11.90
2018-09-23T23:24:15.469Z,11.90
2018-09-23T23:26:43.901Z,12.00
2018-09-23T23:29:13.400Z,11.90
2018-09-23T23:31:41.673Z,11.60
2018-09-23T23:34:09.938Z,11.60
2018-09-23T23:36:38.146Z,11.60
2018-09-23T23:39:08.816Z,11.50
2018-09-23T23:41:38.295Z,11.50
2018-09-23T23:44:07.480Z,11.30
2018-09-23T23:46:36.699Z,11.50
2018-09-23T23:49:05.713Z,11.40
2018-09-23T23:51:34.018Z,11.50
2018-09-23T23:54:02.236Z,11.60
2018-09-23T23:56:30.676Z,11.70
2018-09-23T23:58:59.503Z,11.90
